South Brunswick, North Carolina
Current Conditions -  °F | °C
As of 12:15 PM on Sunday 23 Nov 2014 (Local Time) from KSUT Reporting Station
Heavy Rain Heavy Rain  
Wind Chill: 60°   Ceiling: 3400
Heat Index: 60°   Visibility: 3mi
Dew Point: 59°   Wind: 8mph
Humidity: 96%   Direction: 100°E
Pressure: 30.11"   Gusts: NA
Location:  33.95°N, 78.38°W
Report Text: KSUT 231715Z AUTO 10007KT 050V120 3SM +RA SCT029 BKN034 OVC042 16/15 A3011 RMK AO2 P0003 T01560150
Loading
Personal Weather Stations






























Interactive Weather Map New forecast layout! Learn more

10-Day Weather Forecast

Advertisements
Track Severe Weather on mobile